ADDS METAR Data INFO
IDs: Format: Raw Decoded Include TAF

Data at: 1957 UTC 15 Dec 2017

KFWC 151935Z AUTO 26006KT 10SM BKN039 OVC055 05/M03 A3006 RMK AO1 T00491032
KFWC 151915Z AUTO 25005KT 10SM OVC039 05/M03 A3006 RMK AO1 T00451035
KFWC 151855Z AUTO 24005KT 10SM OVC039 04/M04 A3006 RMK AO1 T00411036
KFWC 151835Z AUTO 23006KT 10SM OVC037 04/M04 A3007 RMK AO1 T00401037
KFWC 151815Z AUTO 24006KT 10SM BKN039 BKN049 OVC060 04/M04 A3007 RMK AO1 T00431036
KFWC 151755Z AUTO 26006KT 10SM SCT043 OVC060 04/M04 A3008 RMK AO1 T00391041 10045 21025
KFWC 151735Z AUTO 25007KT 10SM SCT043 OVC060 04/M04 A3009 RMK AO1 T00381039
KFWC 151715Z AUTO 24005KT 10SM SCT043 OVC060 04/M04 A3010 RMK AO1 T00351039
KFWC 151655Z AUTO 23005KT 10SM SCT043 OVC060 03/M04 A3011 RMK AO1 T00251043
KFWC 151635Z AUTO 24007KT 10SM OVC060 02/M04 A3012 RMK AO1 T00201045
KFWC 151615Z AUTO 22006KT 10SM OVC060 01/M05 A3013 RMK AO1 T00141046
KFWC 151555Z AUTO 23004KT 10SM OVC060 01/M05 A3013 RMK AO1 T00081048
KFWC 151535Z AUTO 23005KT 10SM OVC050 00/M05 A3013 RMK AO1 T00041050
KFWC 151515Z AUTO 23004KT 10SM OVC050 00/M05 A3012 RMK AO1 T00001051
KFWC 151455Z AUTO 22004KT 10SM OVC050 00/M05 A3012 RMK AO1 T00001053
KFWC 151435Z AUTO 23003KT 10SM SCT050 00/M05 A3012 RMK AO1 T10041055
KFWC 151415Z AUTO 23003KT 10SM CLR M01/M06 A3011 RMK AO1 T10121058
KFWC 151355Z AUTO 22003KT 10SM CLR M02/M06 A3010 RMK AO1 T10161060
KFWC 151335Z AUTO 00000KT 10SM CLR M02/M06 A3010 RMK AO1 T10221063
KFWC 151315Z AUTO 00000KT 10SM SCT033 M02/M06 A3010 RMK AO1 T10251065
KFWC 151255Z AUTO 00000KT 10SM OVC031 M01/M06 A3010 RMK AO1 T10151062
KFWC 151235Z AUTO 00000KT 10SM OVC031 M01/M06 A3011 RMK AO1 T10121065
KFWC 151215Z AUTO 00000KT 10SM OVC031 M01/M06 A3011 RMK AO1 T10121065
KFWC 151155Z AUTO 00000KT 10SM OVC031 M01/M06 A3010 RMK AO1 T10121065 11007 21015
KFWC 151135Z AUTO 00000KT 10SM OVC029 M01/M06 A3009 RMK AO1 T10111065
KFWC 151115Z AUTO 00000KT 10SM OVC029 M01/M06 A3009 RMK AO1 T10121060
KFWC 151055Z AUTO 00000KT 10SM OVC029 M01/M06 A3009 RMK AO1 T10111061
KFWC 151035Z AUTO 00000KT 10SM OVC029 M01/M06 A3009 RMK AO1 T10121061
KFWC 151015Z AUTO 00000KT 10SM OVC031 M01/M06 A3009 RMK AO1 T10121060
KFWC 150955Z AUTO 00000KT 10SM OVC031 M01/M06 A3009 RMK AO1 T10111065
KFWC 150935Z AUTO 00000KT 10SM OVC031 M01/M06 A3010 RMK AO1 T10111065
KFWC 150915Z AUTO 00000KT 10SM OVC031 M01/M06 A3010 RMK AO1 T10121065
KFWC 150855Z AUTO 00000KT 10SM OVC033 M01/M06 A3009 RMK AO1 T10151060
KFWC 150835Z AUTO 00000KT 10SM OVC035 M01/M06 A3009 RMK AO1 T10141062
KFWC 150815Z AUTO 00000KT 10SM OVC035 M01/M06 A3009 RMK AO1 T10131061
KFWC 150755Z AUTO 00000KT 10SM OVC035 M01/M06 A3009 RMK AO1 T10111065
KFWC 150735Z AUTO 00000KT 10SM OVC035 M01/M06 A3009 RMK AO1 T10111062
KFWC 150715Z AUTO 00000KT 10SM OVC035 M01/M06 A3009 RMK AO1 T10101064
KFWC 150655Z AUTO 00000KT 10SM OVC035 M01/M06 A3009 RMK AO1 T10101062
KFWC 150635Z AUTO 00000KT 10SM OVC035 M01/M06 A3009 RMK AO1 T10101061
KFWC 150615Z AUTO 00000KT 10SM OVC035 M01/M06 A3009 RMK AO1 T10081062
KFWC 150555Z AUTO 00000KT 10SM OVC035 M01/M06 A3010 RMK AO1 T10071060 10000 21007 400361020
KFWC 150535Z AUTO 00000KT 10SM OVC035 M01/M06 A3011 RMK AO1 T10061063
KFWC 150515Z AUTO 00000KT 10SM OVC035 00/M06 A3012 RMK AO1 T10051060
KFWC 150455Z AUTO 00000KT 10SM OVC035 00/M06 A3012 RMK AO1 T10051061
KFWC 150435Z AUTO 00000KT 10SM OVC035 M01/M05 A3012 RMK AO1 T10061052
KFWC 150415Z AUTO 00000KT 10SM OVC035 00/M06 A3012 RMK AO1 T10051056
KFWC 150355Z AUTO 00000KT 10SM OVC035 00/M06 A3012 RMK AO1 T10051056
KFWC 150335Z AUTO 00000KT 10SM OVC037 00/M06 A3011 RMK AO1 T10041056
KFWC 150315Z AUTO 00000KT 10SM OVC037 00/M06 A3011 RMK AO1 T10021056
KFWC 150255Z AUTO 00000KT 10SM OVC037 00/M05 A3011 RMK AO1 T10031054
KFWC 150235Z AUTO 00000KT 10SM OVC037 00/M05 A3011 RMK AO1 T10051051
KFWC 150215Z AUTO 00000KT 10SM OVC037 00/M05 A3011 RMK AO1 T10041051
KFWC 150155Z AUTO 00000KT 10SM OVC037 00/M05 A3011 RMK AO1 T10021055
KFWC 150130Z AUTO 00000KT 10SM OVC037 00/M06 A3012 RMK AO1 T10011056
KFWC 150115Z AUTO 00000KT 10SM OVC037 00/M05 A3011 RMK AO1 T10021053
KFWC 150055Z AUTO 00000KT 10SM OVC037 00/M05 A3011 RMK AO1 T00001054
KFWC 150035Z AUTO 00000KT 10SM OVC037 00/M06 A3011 RMK AO1 T00001057
KFWC 150015Z AUTO 00000KT 10SM OVC037 00/M05 A3010 RMK AO1 T00001055
KFWC 142355Z AUTO 00000KT 10SM OVC037 00/M06 A3009 RMK AO1 T00001060 10008 20000
KFWC 142335Z AUTO 00000KT 10SM OVC037 00/M06 A3009 RMK AO1 T00001057
KFWC 142315Z AUTO 00000KT 10SM OVC037 00/M06 A3009 RMK AO1 T00001061
KFWC 142255Z AUTO 00000KT 10SM OVC035 00/M06 A3009 RMK AO1 T00021064
KFWC 142235Z AUTO 00000KT 10SM OVC035 00/M06 A3009 RMK AO1 T00031064
KFWC 142215Z AUTO 00000KT 10SM OVC035 01/M06 A3009 RMK AO1 T00051065
KFWC 142155Z AUTO 00000KT 10SM OVC035 01/M06 A3008 RMK AO1 T00051064
KFWC 142135Z AUTO 00000KT 10SM OVC035 01/M06 A3007 RMK AO1 T00061065
KFWC 142115Z AUTO 00000KT 10SM OVC035 01/M07 A3007 RMK AO1 T00071066
KFWC 142055Z AUTO 00000KT 10SM OVC035 01/M07 A3006 RMK AO1 T00071067
KFWC 142035Z AUTO 00000KT 10SM OVC035 01/M07 A3006 RMK AO1 T00071069
KFWC 142015Z AUTO 00000KT 10SM OVC035 01/M07 A3006 RMK AO1 T00061068
KFWC 141955Z AUTO 00000KT 10SM OVC033 00/M07 A3006 RMK AO1 T00041069
KFWC 141935Z AUTO 00000KT 10SM OVC033 00/M07 A3006 RMK AO1 T00041068
KFWC 141915Z AUTO 00000KT 10SM OVC033 01/M07 A3006 RMK AO1 T00061066
KFWC 141855Z AUTO 00000KT 10SM OVC033 00/M07 A3006 RMK AO1 T00031068
KFWC 141835Z AUTO 36004KT 10SM OVC033 00/M06 A3006 RMK AO1 T00031065
KFWC 141815Z AUTO 02006KT 10SM OVC033 01/M06 A3006 RMK AO1 T00051065
KFWC 141755Z AUTO 01005KT 10SM OVC033 00/M07 A3007 RMK AO1 T00041066 10006 21020
KFWC 141735Z AUTO 36005KT 10SM OVC033 00/M06 A3008 RMK AO1 T00041064
KFWC 141715Z AUTO 02004KT 10SM OVC035 01/M06 A3008 RMK AO1 T00051065
KFWC 141655Z AUTO 35003KT 10SM OVC035 01/M06 A3008 RMK AO1 T00051065
KFWC 141635Z AUTO 02003KT 10SM OVC035 00/M07 A3009 RMK AO1 T00031066
KFWC 141615Z AUTO 00000KT 10SM OVC035 00/M07 A3008 RMK AO1 T00011067
KFWC 141555Z AUTO 35006KT 10SM OVC035 00/M07 A3008 RMK AO1 T10011069
KFWC 141535Z AUTO 35005KT 10SM OVC035 00/M07 A3007 RMK AO1 T00001069
KFWC 141515Z AUTO 33004KT 10SM SCT035 00/M07 A3006 RMK AO1 T00001066
KFWC 141455Z AUTO 35004KT 10SM CLR 00/M07 A3005 RMK AO1 T10011069
KFWC 141435Z AUTO 00000KT 10SM SCT030 00/M06 A3005 RMK AO1 T10051065
KFWC 141415Z AUTO 34003KT 10SM BKN030 M01/M07 A3004 RMK AO1 T10131067
KFWC 141355Z AUTO 34003KT 10SM OVC030 M01/M06 A3003 RMK AO1 T10131064
KFWC 141335Z AUTO 34003KT 10SM OVC032 M02/M07 A3003 RMK AO1 T10171066
KFWC 141315Z AUTO 00000KT 10SM OVC032 M02/M07 A3003 RMK AO1 T10201066
KFWC 141255Z AUTO 35003KT 10SM OVC032 M02/M06 A3002 RMK AO1 T10181065
KFWC 141235Z AUTO 34004KT 10SM OVC032 M02/M06 A3000 RMK AO1 T10171065
KFWC 141215Z AUTO 36004KT 10SM OVC032 M02/M06 A2999 RMK AO1 T10161065
KFWC 141155Z AUTO 34003KT 10SM OVC032 M02/M06 A2998 RMK AO1 T10161062 10036 21018
KFWC 141135Z AUTO 36004KT 10SM OVC032 M01/M06 A2997 RMK AO1 T10131060
KFWC 141115Z AUTO 36005KT 10SM OVC036 M01/M06 A2996 RMK AO1 T10121060
KFWC 141055Z AUTO 36006KT 10SM OVC036 M01/M06 A2994 RMK AO1 T10081061
KFWC 141035Z AUTO 36008KT 10SM OVC034 00/M06 A2993 RMK AO1 T10031060
KFWC 141015Z AUTO 36007KT 10SM OVC034 00/M06 A2993 RMK AO1 T00001056
KFWC 140955Z AUTO 35010KT 10SM OVC032 00/M05 A2993 RMK AO1 T00021055
KFWC 140935Z AUTO 36006KT 10SM OVC032 01/M05 A2993 RMK AO1 T00061050
KFWC 140915Z AUTO 34007KT 10SM OVC032 01/M05 A2992 RMK AO1 T00101055
KFWC 140855Z AUTO 34008G14KT 10SM OVC032 01/M05 A2992 RMK AO1 T00111055
KFWC 140835Z AUTO 34010G15KT 10SM OVC032 02/M05 A2991 RMK AO1 T00151047
KFWC 140815Z AUTO 35007KT 10SM OVC032 02/M04 A2990 RMK AO1 T00201039